MV Moseldijk — PBWK — position and weather

sailwx.info

Track history (hours):
 
Tides and Currents Weather Stations Pressure Air Temp Water Temp Dewpoint Dewpoint Depression Visibility Wind Speed Wind Dir Waves Ship Positions

MV Moseldijk

Last reported at 2017-Jan-11 17:33 UTC. Time now 2017-Jan-16 15:18 UTC.
Position N 54°46' E 012°48'.

Length 90 m; draft 6.2 m.

Type: Cargo ship. MMSI: 246644000.

Date/timePositionNaut miles runAvg speedWind from/ knotsBaromVisibWave heightAir tempDewpointWater temp
2017-Jan-11 17:33N 54°46' E 012°48'1110.6
2017-Jan-11 16:33N 54°41' E 012°33'11 9.7
2017-Jan-11 15:24N 54°33' E 012°18'6 7.6
2017-Jan-11 14:33N 54°27' E 012°14'8 7.8
2017-Jan-11 13:33N 54°24' E 012°02'16 7.9
2017-Jan-11 11:32N 54°28' E 011°35'7 7.2
2017-Jan-11 10:33N 54°31' E 011°24'9 9.3
2017-Jan-11 09:33N 54°35' E 011°10'10 9.9
2017-Jan-11 08:33N 54°35' E 010°53'62 6.9
2017-Jan-10 23:32N 54°05' E 009°19'8 8.5
2017-Jan-10 22:33N 53°57' E 009°14'4 4.1
2017-Jan-10 21:34N 53°54' E 009°09'0 0.0
2017-Jan-10 20:34N 53°54' E 009°09'1 0.5
2017-Jan-10 19:33N 53°54' E 009°09'1 1.3
2017-Jan-10 18:33N 53°53' E 009°07'2 2.3
2017-Jan-10 17:34N 53°52' E 009°03'7 7.4
2017-Jan-10 16:33N 53°50' E 008°51'6 6.1
2017-Jan-10 15:33N 53°53' E 008°42'7 6.5
2017-Jan-10 14:33N 53°58' E 008°34'8 8.5
2017-Jan-10 13:33N 53°59' E 008°20'11 9.0
2017-Jan-10 12:22N 53°58' E 008°02'15511.2
2017-Jan-09 22:32N 52°49' E 004°10'10610.6
2017-Jan-09 12:33N 51°30' E 002°15'1312.4
2017-Jan-09 11:32N 51°18' E 002°06'1212.2
2017-Jan-09 10:33N 51°10' E 001°52'1413.5
2017-Jan-09 09:33N 51°00' E 001°38'11910.8
2017-Jan-08 22:31N 50°06' W 001°09'8 8.3
2017-Jan-08 21:33N 50°03' W 001°21'9 8.8
2017-Jan-08 20:33N 50°01' W 001°34'10 9.8
2017-Jan-08 19:33N 49°59' W 001°49'  
2017-Jan-05 16:13N 39°16' W 009°50'711.1
2017-Jan-05 15:33N 39°08' W 009°50'1110.9
2017-Jan-05 14:33N 38°58' W 009°50'1110.9
2017-Jan-05 13:33N 38°47' W 009°50'1110.9
2017-Jan-05 12:33N 38°36' W 009°48'1111.1
2017-Jan-05 11:33N 38°25' W 009°45'1111.1
2017-Jan-05 10:32N 38°14' W 009°42'  
Track history (hours):
 
Tides and Currents Weather Stations Pressure Air Temp Water Temp Dewpoint Dewpoint Depression Visibility Wind Speed Wind Dir Waves Ship Positions

MV Moseldijk

Last reported at 2017-Jan-11 17:33 UTC. Time now 2017-Jan-16 15:18 UTC.
Position N 54°46' E 012°48'.

Length 90 m; draft 6.2 m.

Type: Cargo ship. MMSI: 246644000.

Date/timePositionNaut miles runAvg speedWind from/ knotsBaromVisibWave heightAir tempDewpointWater temp
2017-Jan-11 17:33N 54°46' E 012°48'1110.6
2017-Jan-11 16:33N 54°41' E 012°33'11 9.7
2017-Jan-11 15:24N 54°33' E 012°18'6 7.6
2017-Jan-11 14:33N 54°27' E 012°14'8 7.8
2017-Jan-11 13:33N 54°24' E 012°02'16 7.9
2017-Jan-11 11:32N 54°28' E 011°35'7 7.2
2017-Jan-11 10:33N 54°31' E 011°24'9 9.3
2017-Jan-11 09:33N 54°35' E 011°10'10 9.9
2017-Jan-11 08:33N 54°35' E 010°53'62 6.9
2017-Jan-10 23:32N 54°05' E 009°19'8 8.5
2017-Jan-10 22:33N 53°57' E 009°14'4 4.1
2017-Jan-10 21:34N 53°54' E 009°09'0 0.0
2017-Jan-10 20:34N 53°54' E 009°09'1 0.5
2017-Jan-10 19:33N 53°54' E 009°09'1 1.3
2017-Jan-10 18:33N 53°53' E 009°07'2 2.3
2017-Jan-10 17:34N 53°52' E 009°03'7 7.4
2017-Jan-10 16:33N 53°50' E 008°51'6 6.1
2017-Jan-10 15:33N 53°53' E 008°42'7 6.5
2017-Jan-10 14:33N 53°58' E 008°34'8 8.5
2017-Jan-10 13:33N 53°59' E 008°20'11 9.0
2017-Jan-10 12:22N 53°58' E 008°02'15511.2
2017-Jan-09 22:32N 52°49' E 004°10'10610.6
2017-Jan-09 12:33N 51°30' E 002°15'1312.4
2017-Jan-09 11:32N 51°18' E 002°06'1212.2
2017-Jan-09 10:33N 51°10' E 001°52'1413.5
2017-Jan-09 09:33N 51°00' E 001°38'11910.8
2017-Jan-08 22:31N 50°06' W 001°09'8 8.3
2017-Jan-08 21:33N 50°03' W 001°21'9 8.8
2017-Jan-08 20:33N 50°01' W 001°34'10 9.8
2017-Jan-08 19:33N 49°59' W 001°49'  
2017-Jan-05 16:13N 39°16' W 009°50'711.1
2017-Jan-05 15:33N 39°08' W 009°50'1110.9
2017-Jan-05 14:33N 38°58' W 009°50'1110.9
2017-Jan-05 13:33N 38°47' W 009°50'1110.9
2017-Jan-05 12:33N 38°36' W 009°48'1111.1
2017-Jan-05 11:33N 38°25' W 009°45'1111.1
2017-Jan-05 10:32N 38°14' W 009°42'  

Dump ship's entire track history